Time;durP1;ratioP1;P1;durP2;ratioP2;P2;SDS_P1;SDS_P2;PMS_P1;PMS_P2;Temp;Humidity;BMP_temperature;BMP_pressure;BME280_temperature;BME280_humidity;BME280_pressure;Samples;Min_cycle;Max_cycle;Signal;HPM_P1;HPM_P2
2023/09/18 00:00:35;;;;;;;16.15;9.63;;;;;;;20.14;100.00;100517.28;5192588;28;20111;-80
2023/09/18 00:03:06;;;;;;;13.50;9.20;;;;;;;20.16;100.00;100512.41;5191582;28;20100;-80
2023/09/18 00:05:36;;;;;;;13.55;10.07;;;;;;;20.16;100.00;100509.69;5192181;28;20030;-80
2023/09/18 00:08:07;;;;;;;21.02;10.07;;;;;;;20.18;100.00;100502.09;5188793;28;20040;-80
2023/09/18 00:10:37;;;;;;;18.98;9.52;;;;;;;20.16;100.00;100504.22;5195138;28;20027;-80
2023/09/18 00:13:08;;;;;;;14.43;8.77;;;;;;;20.11;100.00;100491.31;5194811;28;20391;-80
2023/09/18 00:15:40;;;;;;;16.30;8.43;;;;;;;20.09;100.00;100488.03;5192608;28;20049;-81
2023/09/18 00:18:11;;;;;;;14.27;8.90;;;;;;;20.08;100.00;100490.97;5193722;28;20022;-80
2023/09/18 00:20:42;;;;;;;16.23;9.48;;;;;;;20.09;100.00;100485.31;5192770;28;20037;-80
2023/09/18 00:23:13;;;;;;;19.15;10.35;;;;;;;20.10;100.00;100488.84;5197965;28;20396;-80
2023/09/18 00:25:43;;;;;;;18.13;10.07;;;;;;;20.13;100.00;100483.75;5194511;28;20076;-80
2023/09/18 00:28:14;;;;;;;18.73;9.77;;;;;;;20.16;100.00;100482.44;5192367;28;20026;-80
2023/09/18 00:30:49;;;;;;;22.02;10.27;;;;;;;20.20;100.00;100489.06;5194635;28;20021;-80
2023/09/18 00:33:20;;;;;;;24.08;10.60;;;;;;;20.22;100.00;100483.38;5189514;28;20033;-81
2023/09/18 00:35:52;;;;;;;16.40;10.00;;;;;;;20.26;100.00;100484.56;5198596;28;20100;-80
2023/09/18 00:38:22;;;;;;;14.55;9.68;;;;;;;20.26;100.00;100488.13;5197232;28;20037;-80
2023/09/18 00:40:53;;;;;;;14.48;9.85;;;;;;;20.27;100.00;100491.66;5183958;28;20029;-80
2023/09/18 00:43:23;;;;;;;15.85;10.57;;;;;;;20.24;100.00;100484.81;5196302;28;20033;-81
2023/09/18 00:45:54;;;;;;;19.95;10.80;;;;;;;20.23;100.00;100477.72;5192871;28;20033;-80
2023/09/18 00:48:25;;;;;;;18.23;10.68;;;;;;;20.26;100.00;100466.31;5197205;28;20048;-80
2023/09/18 00:50:56;;;;;;;17.27;10.52;;;;;;;20.28;100.00;100456.03;5199893;28;20052;-80
2023/09/18 00:53:27;;;;;;;16.85;10.15;;;;;;;20.32;100.00;100445.47;5200224;28;20056;-80
2023/09/18 00:56:00;;;;;;;13.65;9.05;;;;;;;20.35;100.00;100443.09;5202799;28;20472;-81
2023/09/18 00:58:31;;;;;;;15.82;8.90;;;;;;;20.41;100.00;100441.31;5209952;28;20045;-80
2023/09/18 01:01:03;;;;;;;14.63;8.98;;;;;;;20.46;100.00;100432.41;5201656;28;20033;-80
2023/09/18 01:03:34;;;;;;;19.05;10.57;;;;;;;20.47;100.00;100439.53;5201885;28;20678;-80
2023/09/18 01:06:05;;;;;;;17.25;9.70;;;;;;;20.43;100.00;100450.91;5200759;28;20030;-81
2023/09/18 01:08:40;;;;;;;18.27;10.35;;;;;;;20.42;100.00;100454.69;5201563;28;20029;-80
2023/09/18 01:11:37;;;;;;;18.02;10.15;;;;;;;20.45;100.00;100461.56;5201797;28;20029;-81
2023/09/18 01:14:25;;;;;;;21.60;10.32;;;;;;;20.48;100.00;100482.06;5203218;28;20034;-81
2023/09/18 01:16:58;;;;;;;18.40;10.05;;;;;;;20.47;100.00;100481.25;5198841;28;20783;-81
2023/09/18 01:19:40;;;;;;;13.85;9.35;;;;;;;20.49;100.00;100487.28;5207094;28;20025;-81
2023/09/18 01:22:13;;;;;;;18.70;9.60;;;;;;;20.49;100.00;100495.47;5196966;28;20111;-80
2023/09/18 01:24:45;;;;;;;19.17;9.57;;;;;;;20.61;100.00;100493.53;5194979;28;20027;-80
2023/09/18 01:27:17;;;;;;;18.77;10.50;;;;;;;20.67;100.00;100475.38;5194102;28;20033;-80
2023/09/18 01:29:49;;;;;;;15.23;8.85;;;;;;;20.69;100.00;100485.00;5197952;28;20456;-80
2023/09/18 01:32:25;;;;;;;14.13;8.77;;;;;;;20.79;100.00;100508.91;5202315;28;20039;-80
2023/09/18 01:35:00;;;;;;;17.20;9.23;;;;;;;20.86;100.00;100503.31;5195550;28;20500;-80
2023/09/18 01:37:31;;;;;;;15.77;9.13;;;;;;;20.90;100.00;100485.41;5197123;28;20022;-82
2023/09/18 01:40:06;;;;;;;16.42;8.98;;;;;;;20.91;100.00;100467.97;5199704;28;20033;-80
2023/09/18 01:42:37;;;;;;;13.85;8.30;;;;;;;20.94;100.00;100446.50;5192563;28;20033;-80
2023/09/18 01:45:08;;;;;;;16.42;9.85;;;;;;;20.98;100.00;100449.53;5198289;28;20526;-81
2023/09/18 01:47:38;;;;;;;16.58;8.43;;;;;;;20.98;100.00;100456.88;5193010;28;20041;-80
2023/09/18 01:50:10;;;;;;;13.00;8.48;;;;;;;20.96;100.00;100454.41;5201301;28;20033;-81
2023/09/18 01:52:40;;;;;;;15.73;8.73;;;;;;;20.97;100.00;100447.06;5196070;28;20033;-80
2023/09/18 01:55:11;;;;;;;16.35;9.18;;;;;;;20.93;100.00;100449.44;5198423;28;20013;-80
2023/09/18 01:57:42;;;;;;;17.40;8.43;;;;;;;20.89;100.00;100454.56;5201655;28;20096;-81
2023/09/18 02:00:14;;;;;;;16.38;8.10;;;;;;;20.85;100.00;100450.69;5206535;28;20023;-81
2023/09/18 02:02:48;;;;;;;;;;;;;;;20.80;100.00;100439.69;5204971;28;20079;-81
2023/09/18 02:05:19;;;;;;;15.85;8.95;;;;;;;20.74;100.00;100435.19;5195869;28;19960;-80
2023/09/18 02:07:49;;;;;;;13.82;8.57;;;;;;;20.69;100.00;100430.47;5195647;28;20026;-81
2023/09/18 02:10:20;;;;;;;13.60;9.27;;;;;;;20.63;100.00;100427.88;5204508;28;20026;-81
2023/09/18 02:12:51;;;;;;;17.35;9.10;;;;;;;20.58;100.00;100430.50;5194852;28;20511;-80
2023/09/18 02:15:21;;;;;;;17.38;9.20;;;;;;;20.56;100.00;100429.94;5193072;28;20014;-81
2023/09/18 02:17:52;;;;;;;25.77;10.48;;;;;;;20.56;100.00;100422.56;5200136;28;20029;-80
2023/09/18 02:20:41;;;;;;;14.67;9.60;;;;;;;20.53;100.00;100423.06;5195174;28;20021;-80
2023/09/18 02:23:11;;;;;;;;;;;;;;;20.50;100.00;100418.09;5195679;28;20113;-80
2023/09/18 02:25:57;;;;;;;16.63;8.82;;;;;;;20.49;100.00;100411.00;5190703;28;19921;-80
2023/09/18 02:28:27;;;;;;;21.00;10.20;;;;;;;20.48;100.00;100403.06;5197819;28;20052;-80
2023/09/18 02:31:03;;;;;;;16.77;10.20;;;;;;;20.47;100.00;100407.66;5191940;28;20038;-80
2023/09/18 02:33:34;;;;;;;20.13;10.55;;;;;;;20.48;100.00;100416.66;5189989;28;20028;-81
2023/09/18 02:36:05;;;;;;;18.00;9.50;;;;;;;20.50;100.00;100414.56;5196346;28;20025;-80
2023/09/18 02:38:35;;;;;;;15.55;9.40;;;;;;;20.47;100.00;100401.41;5191599;28;20021;-80
2023/09/18 02:41:06;;;;;;;18.27;10.18;;;;;;;20.47;100.00;100406.84;5193676;28;20055;-80
2023/09/18 02:43:37;;;;;;;19.77;10.55;;;;;;;20.43;100.00;100411.91;5192684;28;20029;-80
2023/09/18 02:46:08;;;;;;;16.48;10.40;;;;;;;20.41;100.00;100403.16;5198399;28;20041;-81
2023/09/18 02:48:39;;;;;;;19.27;11.55;;;;;;;20.41;100.00;100393.09;5196100;28;20036;-82
2023/09/18 02:51:10;;;;;;;16.42;10.43;;;;;;;20.41;100.00;100387.66;5195593;28;20426;-80
2023/09/18 02:53:40;;;;;;;22.05;11.70;;;;;;;20.40;100.00;100386.00;5193690;28;20088;-81
2023/09/18 02:56:12;;;;;;;19.55;10.48;;;;;;;20.40;100.00;100387.91;5196416;28;20025;-80
2023/09/18 02:58:42;;;;;;;20.33;10.88;;;;;;;20.33;100.00;100393.50;5196094;28;20387;-81
2023/09/18 03:01:13;;;;;;;25.40;11.80;;;;;;;20.32;100.00;100394.53;5196135;28;20037;-80
2023/09/18 03:03:43;;;;;;;24.08;10.95;;;;;;;20.32;100.00;100396.44;5193318;28;20036;-80
2023/09/18 03:06:14;;;;;;;24.60;11.02;;;;;;;20.32;100.00;100391.81;5197918;28;20033;-80
2023/09/18 03:08:45;;;;;;;21.50;11.00;;;;;;;20.33;100.00;100396.22;5190157;28;20856;-81
2023/09/18 03:11:16;;;;;;;26.55;12.38;;;;;;;20.34;100.00;100405.22;5195486;28;20017;-80
2023/09/18 03:13:47;;;;;;;20.48;11.77;;;;;;;20.36;100.00;100398.44;5196353;28;20837;-80
2023/09/18 03:16:17;;;;;;;19.80;11.75;;;;;;;20.41;100.00;100403.16;5200342;28;20037;-81
2023/09/18 03:18:48;;;;;;;21.63;11.98;;;;;;;20.38;100.00;100409.09;5195593;28;20022;-82
2023/09/18 03:21:19;;;;;;;29.15;11.45;;;;;;;20.33;100.00;100401.66;5193949;28;20064;-81
2023/09/18 03:23:50;;;;;;;23.52;10.73;;;;;;;20.33;100.00;100373.56;5181152;28;20112;-81
2023/09/18 03:26:20;;;;;;;18.95;10.68;;;;;;;20.42;100.00;100344.88;5194591;28;20087;-80
2023/09/18 03:28:51;;;;;;;19.27;10.43;;;;;;;20.42;100.00;100342.97;5197285;28;20025;-81
2023/09/18 03:31:21;;;;;;;18.58;10.45;;;;;;;20.46;100.00;100353.41;5197577;28;20427;-81
2023/09/18 03:33:52;;;;;;;22.75;11.38;;;;;;;20.46;100.00;100356.13;5195899;28;20087;-80
2023/09/18 03:36:23;;;;;;;19.60;10.60;;;;;;;20.44;100.00;100346.31;5191590;28;20106;-80
2023/09/18 03:38:54;;;;;;;19.15;11.15;;;;;;;20.42;100.00;100340.25;5197552;28;20017;-80
2023/09/18 03:41:24;;;;;;;17.88;9.98;;;;;;;20.46;100.00;100337.06;5200444;28;20029;-81
2023/09/18 03:43:55;;;;;;;17.65;9.65;;;;;;;20.47;100.00;100333.28;5195701;28;20022;-80
2023/09/18 03:46:25;;;;;;;15.65;9.75;;;;;;;20.44;100.00;100343.59;5194554;28;20042;-81
2023/09/18 03:48:57;;;;;;;19.48;9.10;;;;;;;20.46;100.00;100350.69;5195335;28;20031;-81
2023/09/18 03:51:27;;;;;;;16.58;8.25;;;;;;;20.47;100.00;100336.00;5198300;28;20096;-81
2023/09/18 03:53:58;;;;;;;13.65;7.13;;;;;;;20.37;100.00;100337.44;5199761;28;20025;-81
2023/09/18 03:56:28;;;;;;;16.85;7.03;;;;;;;20.41;100.00;100327.72;5198260;28;20028;-81
2023/09/18 03:59:00;;;;;;;10.20;6.60;;;;;;;20.44;100.00;100329.13;5197888;28;20025;-81
2023/09/18 04:01:31;;;;;;;10.10;5.65;;;;;;;20.43;100.00;100322.00;5198693;28;20029;-81
2023/09/18 04:04:02;;;;;;;10.48;5.97;;;;;;;20.41;100.00;100305.91;5196242;28;20029;-81
2023/09/18 04:06:44;;;;;;;9.20;5.28;;;;;;;20.41;100.00;100308.66;5198770;28;20039;-80
2023/09/18 04:09:15;;;;;;;7.25;4.60;;;;;;;20.40;100.00;100309.72;5197614;28;20063;-82
2023/09/18 04:11:45;;;;;;;12.88;4.60;;;;;;;20.51;100.00;100313.47;5192101;28;20033;-81
2023/09/18 04:14:16;;;;;;;10.27;4.03;;;;;;;20.49;100.00;100312.91;5199547;28;20376;-81
2023/09/18 04:16:46;;;;;;;6.28;3.95;;;;;;;20.53;100.00;100308.59;5195336;28;20091;-81
2023/09/18 04:19:17;;;;;;;6.30;3.63;;;;;;;20.50;100.00;100292.75;5199084;28;20029;-81
2023/09/18 04:21:48;;;;;;;9.27;3.65;;;;;;;20.58;100.00;100286.06;5195692;28;20055;-80
2023/09/18 04:24:18;;;;;;;10.13;3.25;;;;;;;20.55;100.00;100281.97;5189151;28;20395;-81
2023/09/18 04:26:50;;;;;;;8.35;3.70;;;;;;;20.61;100.00;100270.06;5197480;28;20076;-81
2023/09/18 04:29:21;;;;;;;8.25;2.90;;;;;;;20.53;100.00;100281.34;5194873;28;20025;-81
2023/09/18 04:31:53;;;;;;;6.88;2.55;;;;;;;20.62;100.00;100274.44;5198553;28;20045;-80
2023/09/18 04:34:24;;;;;;;4.13;2.40;;;;;;;20.63;100.00;100284.28;5198999;28;20029;-80
2023/09/18 04:36:54;;;;;;;5.13;2.60;;;;;;;20.69;100.00;100280.56;5195373;28;20411;-81
2023/09/18 04:39:25;;;;;;;6.13;2.95;;;;;;;20.76;100.00;100274.94;5196877;28;20155;-81
2023/09/18 04:41:55;;;;;;;7.63;2.50;;;;;;;20.73;100.00;100271.88;5195629;28;20040;-80
2023/09/18 04:44:26;;;;;;;7.30;2.40;;;;;;;20.79;100.00;100290.00;5197304;28;20525;-80
2023/09/18 04:46:57;;;;;;;6.15;2.40;;;;;;;20.79;100.00;100298.19;5197925;28;20034;-81
2023/09/18 04:49:28;;;;;;;3.42;2.15;;;;;;;20.83;100.00;100291.13;5195201;28;20029;-80
2023/09/18 04:51:58;;;;;;;6.65;2.15;;;;;;;20.76;100.00;100293.22;5192715;28;20353;-80
2023/09/18 04:54:29;;;;;;;4.50;2.17;;;;;;;20.73;100.00;100291.78;5192043;28;20044;-81
2023/09/18 04:56:59;;;;;;;4.47;2.30;;;;;;;20.64;100.00;100291.38;5194639;28;20094;-82
2023/09/18 04:59:30;;;;;;;4.20;2.40;;;;;;;20.60;100.00;100294.84;5197361;28;20053;-81
2023/09/18 05:02:00;;;;;;;2.53;1.85;;;;;;;20.54;100.00;100304.84;5194471;28;20137;-82
2023/09/18 05:04:31;;;;;;;5.03;2.10;;;;;;;20.44;100.00;100305.44;5196246;28;20499;-82
2023/09/18 05:07:02;;;;;;;5.35;2.58;;;;;;;20.47;100.00;100298.69;5193906;28;20108;-81
2023/09/18 05:09:32;;;;;;;3.40;2.20;;;;;;;20.38;100.00;100303.69;5190885;28;20094;-81
2023/09/18 05:12:04;;;;;;;5.13;2.45;;;;;;;20.34;100.00;100297.09;5194156;28;20638;-80
2023/09/18 05:14:35;;;;;;;7.65;2.00;;;;;;;20.26;100.00;100305.63;5194349;28;20041;-81
2023/09/18 05:17:06;;;;;;;4.72;2.25;;;;;;;20.26;100.00;100305.63;5193540;28;20021;-81
2023/09/18 05:19:36;;;;;;;6.28;2.15;;;;;;;20.19;100.00;100318.56;5194268;28;20045;-81
2023/09/18 05:22:10;;;;;;;5.05;2.53;;;;;;;20.15;100.00;100320.13;5193871;28;20033;-81
2023/09/18 05:24:40;;;;;;;4.82;2.00;;;;;;;20.17;100.00;100326.97;5193203;28;20120;-81
2023/09/18 05:27:12;;;;;;;3.88;2.30;;;;;;;20.20;100.00;100325.66;5197593;28;20701;-81
2023/09/18 05:29:43;;;;;;;4.20;1.77;;;;;;;20.22;100.00;100333.59;5198680;28;20060;-80
2023/09/18 05:32:13;;;;;;;4.53;1.77;;;;;;;20.20;100.00;100342.00;5195818;28;20514;-79
2023/09/18 05:34:44;;;;;;;4.68;1.98;;;;;;;20.16;100.00;100344.38;5193398;28;20029;-79
2023/09/18 05:37:15;;;;;;;2.97;1.42;;;;;;;20.13;100.00;100334.00;5194692;28;20406;-78
2023/09/18 05:39:45;;;;;;;7.45;1.83;;;;;;;20.08;100.00;100320.28;5181215;28;20052;-78
2023/09/18 05:42:16;;;;;;;5.20;2.03;;;;;;;20.04;100.00;100331.88;5195137;28;20454;-78
2023/09/18 05:44:46;;;;;;;5.38;2.20;;;;;;;19.99;100.00;100331.78;5195952;28;20117;-78
2023/09/18 05:47:17;;;;;;;4.85;1.77;;;;;;;20.00;100.00;100341.59;5199099;28;20091;-79
2023/09/18 05:49:47;;;;;;;6.10;2.25;;;;;;;19.99;100.00;100348.13;5200347;28;20395;-80
2023/09/18 05:52:18;;;;;;;4.47;2.15;;;;;;;19.97;100.00;100344.78;5195509;28;20106;-79
2023/09/18 05:54:48;;;;;;;2.08;1.60;;;;;;;19.89;100.00;100340.56;5199671;28;20026;-79
2023/09/18 05:57:19;;;;;;;3.40;1.58;;;;;;;19.92;100.00;100345.50;5201955;28;20449;-80
2023/09/18 05:59:49;;;;;;;3.55;1.52;;;;;;;19.82;100.00;100346.13;5191988;28;20029;-80
2023/09/18 06:02:20;;;;;;;7.53;1.77;;;;;;;19.87;100.00;100337.22;5197669;28;20033;-81
2023/09/18 06:05:06;;;;;;;3.90;1.73;;;;;;;19.88;100.00;100349.78;5200428;28;20033;-80
2023/09/18 06:07:36;;;;;;;6.20;1.73;;;;;;;19.88;100.00;100349.78;5192752;28;20104;-82
2023/09/18 06:10:07;;;;;;;6.30;2.08;;;;;;;19.88;100.00;100356.06;5200032;28;20508;-80
2023/09/18 06:12:39;;;;;;;9.43;1.80;;;;;;;19.86;100.00;100351.91;5196257;28;20035;-81
2023/09/18 06:15:10;;;;;;;4.20;2.25;;;;;;;19.91;100.00;100357.47;5200752;28;20095;-81
2023/09/18 06:17:42;;;;;;;4.90;2.05;;;;;;;19.91;100.00;100366.47;5196126;28;20017;-81
2023/09/18 06:20:13;;;;;;;5.03;1.50;;;;;;;19.92;100.00;100370.81;5198529;28;20120;-81
2023/09/18 06:22:43;;;;;;;5.03;2.00;;;;;;;19.90;100.00;100372.16;5199827;28;20502;-80
2023/09/18 06:25:14;;;;;;;6.18;1.77;;;;;;;20.01;100.00;100370.47;5193224;28;20025;-82
2023/09/18 06:27:45;;;;;;;5.57;1.83;;;;;;;19.94;100.00;100377.97;5198320;28;20034;-82
2023/09/18 06:30:16;;;;;;;5.90;1.63;;;;;;;19.95;100.00;100382.31;5197764;28;20025;-81
2023/09/18 06:32:47;;;;;;;5.35;1.85;;;;;;;19.93;100.00;100382.56;5198559;28;20026;-81
2023/09/18 06:35:17;;;;;;;5.18;2.20;;;;;;;19.89;100.00;100390.38;5200814;28;20035;-81
2023/09/18 06:37:48;;;;;;;7.15;2.13;;;;;;;19.85;100.00;100377.47;5194375;28;20757;-83
2023/09/18 06:40:19;;;;;;;3.50;2.00;;;;;;;19.90;100.00;100383.88;5199337;28;20037;-82
2023/09/18 06:42:49;;;;;;;3.55;1.70;;;;;;;19.92;100.00;100381.72;5199009;28;20041;-81
2023/09/18 06:45:20;;;;;;;4.32;1.70;;;;;;;19.93;100.00;100388.03;5202608;28;20034;-80
2023/09/18 06:47:50;;;;;;;4.25;1.60;;;;;;;19.96;100.00;100392.16;5194468;28;20033;-81
2023/09/18 06:50:21;;;;;;;3.20;1.75;;;;;;;19.97;100.00;100402.78;5196340;28;20025;-80
2023/09/18 06:52:51;;;;;;;4.40;1.75;;;;;;;19.95;100.00;100399.47;5195537;28;20021;-80
2023/09/18 06:55:22;;;;;;;7.18;1.90;;;;;;;19.99;100.00;100394.41;5190897;28;20032;-80
2023/09/18 06:57:53;;;;;;;8.85;2.15;;;;;;;20.03;100.00;100399.13;5192021;28;20729;-80
2023/09/18 07:00:25;;;;;;;3.90;1.92;;;;;;;20.04;100.00;100387.16;5176063;28;20029;-80
2023/09/18 07:02:55;;;;;;;4.50;2.10;;;;;;;19.97;100.00;100385.63;5191405;28;20044;-80
2023/09/18 07:05:26;;;;;;;4.60;2.08;;;;;;;19.96;100.00;100383.97;5183037;28;20033;-80
2023/09/18 07:07:57;;;;;;;7.80;1.80;;;;;;;19.90;100.00;100392.03;5194870;28;20052;-80
2023/09/18 07:10:27;;;;;;;8.68;2.20;;;;;;;20.00;100.00;100396.06;5194132;28;20031;-80
2023/09/18 07:12:58;;;;;;;8.65;1.95;;;;;;;20.04;100.00;100389.88;5181754;28;20104;-81
2023/09/18 07:15:29;;;;;;;5.93;2.17;;;;;;;20.04;100.00;100395.34;5196496;28;20031;-80
2023/09/18 07:17:59;;;;;;;4.03;1.70;;;;;;;20.04;100.00;100392.63;5195751;28;20030;-80
2023/09/18 07:20:30;;;;;;;4.82;1.92;;;;;;;19.98;100.00;100393.56;5194814;28;20022;-81
2023/09/18 07:23:00;;;;;;;5.07;2.15;;;;;;;20.13;100.00;100399.34;5194917;28;20034;-80
2023/09/18 07:25:31;;;;;;;4.80;2.00;;;;;;;20.05;100.00;100401.59;5199107;28;20029;-81
2023/09/18 07:28:02;;;;;;;6.63;2.33;;;;;;;20.06;100.00;100398.63;5163729;28;20053;-80
2023/09/18 07:30:33;;;;;;;3.80;1.83;;;;;;;20.10;100.00;100410.72;5195572;28;20037;-80
2023/09/18 07:33:04;;;;;;;7.10;2.15;;;;;;;20.11;100.00;100409.63;5193690;28;20067;-81
2023/09/18 07:35:34;;;;;;;10.50;2.25;;;;;;;20.24;100.00;100405.00;5193349;28;20045;-80
2023/09/18 07:38:05;;;;;;;5.65;2.40;;;;;;;20.28;100.00;100415.19;5196673;28;20092;-80
2023/09/18 07:40:35;;;;;;;5.32;2.10;;;;;;;20.21;100.00;100405.47;5195732;28;20112;-81
2023/09/18 07:43:06;;;;;;;6.45;2.30;;;;;;;20.29;100.00;100410.56;5182480;28;20025;-81
2023/09/18 07:45:39;;;;;;;2.88;2.15;;;;;;;20.40;100.00;100401.53;5195292;28;20017;-81
2023/09/18 07:48:10;;;;;;;6.07;2.30;;;;;;;20.80;100.00;100412.41;5197522;28;20660;-80
2023/09/18 07:50:44;;;;;;;4.63;2.42;;;;;;;21.46;100.00;100397.22;5194293;28;20025;-81
2023/09/18 07:53:15;;;;;;;5.60;2.15;;;;;;;22.05;100.00;100393.97;5192224;28;20021;-81
2023/09/18 07:55:48;;;;;;;5.13;1.83;;;;;;;22.75;100.00;100390.47;5196302;28;20027;-82
2023/09/18 07:58:20;;;;;;;4.13;1.80;;;;;;;23.07;100.00;100391.59;5195489;28;20029;-81
2023/09/18 08:00:53;;;;;;;5.43;1.80;;;;;;;23.34;100.00;100386.91;5194635;28;20173;-82
2023/09/18 08:03:24;;;;;;;6.03;1.85;;;;;;;23.68;100.00;100395.66;5196270;28;20031;-81
2023/09/18 08:05:55;;;;;;;8.95;2.20;;;;;;;23.84;100.00;100387.53;5194608;28;20022;-81
2023/09/18 08:08:26;;;;;;;5.53;1.77;;;;;;;24.11;100.00;100380.03;5197734;28;20025;-81
2023/09/18 08:10:58;;;;;;;6.10;1.95;;;;;;;24.17;100.00;100375.38;5193385;28;20085;-81
2023/09/18 08:13:29;;;;;;;4.00;1.98;;;;;;;24.79;100.00;100385.47;5196473;28;20021;-83
2023/09/18 08:15:59;;;;;;;8.52;2.15;;;;;;;24.38;100.00;100388.09;5191522;28;20018;-81
2023/09/18 08:18:30;;;;;;;3.75;1.75;;;;;;;24.50;100.00;100388.72;5198047;28;20411;-81
2023/09/18 08:21:00;;;;;;;4.30;1.90;;;;;;;24.72;100.00;100404.94;5198807;28;20025;-81
2023/09/18 08:23:32;;;;;;;5.05;2.08;;;;;;;24.56;100.00;100394.19;5195086;28;20033;-81
2023/09/18 08:26:03;;;;;;;3.60;2.10;;;;;;;24.79;100.00;100404.66;5197563;28;20037;-81
2023/09/18 08:28:36;;;;;;;4.93;2.00;;;;;;;24.65;100.00;100411.75;5190511;28;20026;-81
2023/09/18 08:31:07;;;;;;;4.38;2.10;;;;;;;25.13;100.00;100417.94;5193012;28;20025;-82
2023/09/18 08:33:37;;;;;;;5.95;2.00;;;;;;;24.70;100.00;100429.06;5194802;28;20029;-81
2023/09/18 08:36:08;;;;;;;5.55;1.90;;;;;;;24.32;100.00;100427.53;5196104;28;20029;-81
2023/09/18 08:38:39;;;;;;;7.40;2.00;;;;;;;24.08;100.00;100426.31;5197005;28;20032;-82
2023/09/18 08:41:11;;;;;;;7.30;1.92;;;;;;;23.81;100.00;100427.25;5185973;28;20478;-82
2023/09/18 08:43:43;;;;;;;6.10;2.03;;;;;;;23.63;100.00;100444.91;5180815;28;20048;-80
2023/09/18 08:46:14;;;;;;;6.90;2.50;;;;;;;22.98;100.00;100438.56;5194281;28;20605;-81
2023/09/18 08:48:44;;;;;;;7.10;2.47;;;;;;;23.09;100.00;100438.66;5191645;28;20080;-81
2023/09/18 08:51:17;;;;;;;8.20;2.55;;;;;;;23.21;100.00;100444.81;5187873;28;20029;-81
2023/09/18 08:53:47;;;;;;;10.55;2.50;;;;;;;23.25;100.00;100456.91;5196408;28;20106;-81
2023/09/18 08:56:21;;;;;;;8.10;2.70;;;;;;;22.93;100.00;100459.56;5197657;28;20025;-80
2023/09/18 08:58:53;;;;;;;6.63;2.63;;;;;;;22.68;100.00;100458.16;5194370;28;20041;-80
2023/09/18 09:01:23;;;;;;;7.30;2.85;;;;;;;22.29;100.00;100454.72;5197741;28;20487;-80
2023/09/18 09:03:55;;;;;;;7.32;3.08;;;;;;;22.28;100.00;100452.19;5186732;28;20028;-80
2023/09/18 09:06:25;;;;;;;7.90;2.78;;;;;;;22.30;100.00;100459.09;5194728;28;20025;-81
2023/09/18 09:08:56;;;;;;;13.13;3.30;;;;;;;22.01;100.00;100468.47;5194799;28;20025;-80
2023/09/18 09:11:27;;;;;;;7.20;2.88;;;;;;;21.87;100.00;100466.06;5190018;28;20018;-80
2023/09/18 09:14:18;;;;;;;6.93;2.83;;;;;;;21.73;100.00;100471.03;5193756;28;20033;-80
2023/09/18 09:16:50;;;;;;;7.57;2.92;;;;;;;21.71;100.00;100480.56;5197011;28;20025;-81
2023/09/18 09:19:34;;;;;;;6.43;3.00;;;;;;;21.88;100.00;100473.19;5192303;28;20030;-81
2023/09/18 09:22:06;;;;;;;9.25;3.58;;;;;;;22.00;100.00;100475.00;5183852;28;20045;-81
2023/09/18 09:24:42;;;;;;;10.10;3.42;;;;;;;22.08;100.00;100480.84;5200261;28;20033;-80
2023/09/18 09:27:14;;;;;;;6.13;3.70;;;;;;;22.11;100.00;100474.13;5196932;28;20032;-81
2023/09/18 09:29:58;;;;;;;11.02;3.90;;;;;;;22.06;100.00;100484.94;5193034;28;20021;-80
2023/09/18 09:32:31;;;;;;;8.60;3.78;;;;;;;22.22;100.00;100478.63;5198783;28;20029;-80
2023/09/18 09:35:06;;;;;;;6.97;3.35;;;;;;;22.30;100.00;100470.00;5193031;28;20439;-82
2023/09/18 09:37:37;;;;;;;6.47;3.13;;;;;;;22.25;100.00;100471.84;5197096;28;20028;-82
2023/09/18 09:40:09;;;;;;;10.15;3.67;;;;;;;22.05;100.00;100475.09;5192391;28;20026;-80
2023/09/18 09:42:40;;;;;;;6.75;3.42;;;;;;;21.93;100.00;100465.06;5182732;28;20448;-81
2023/09/18 09:45:15;;;;;;;7.68;3.13;;;;;;;21.94;100.00;100469.47;5193280;28;20104;-81
2023/09/18 09:51:20;;;;;;;8.55;3.53;;;;;;;21.84;100.00;100480.25;5192276;28;20033;-81
2023/09/18 09:53:51;;;;;;;10.45;3.60;;;;;;;21.83;100.00;100485.94;5189820;28;20427;-80
2023/09/18 09:56:22;;;;;;;8.80;3.70;;;;;;;21.67;100.00;100485.69;5195919;28;20022;-80
2023/09/18 09:59:07;;;;;;;8.25;3.53;;;;;;;21.73;100.00;100490.16;5197786;28;20049;-82
2023/09/18 10:01:41;;;;;;;7.88;3.95;;;;;;;21.66;100.00;100485.94;5180124;28;20036;-81
2023/09/18 10:04:13;;;;;;;8.68;4.00;;;;;;;21.53;100.00;100495.28;5197094;28;20453;-81
2023/09/18 10:06:53;;;;;;;11.00;3.72;;;;;;;21.67;100.00;100488.44;5194052;28;20413;-81
2023/09/18 10:09:28;;;;;;;11.57;4.30;;;;;;;21.62;100.00;100495.72;5196940;28;20449;-80
2023/09/18 10:12:01;;;;;;;7.35;3.80;;;;;;;21.59;100.00;100502.50;5186182;28;20057;-80
2023/09/18 10:14:35;;;;;;;8.35;3.55;;;;;;;21.60;100.00;100495.97;5191622;28;20014;-81
2023/09/18 10:17:17;;;;;;;6.40;3.50;;;;;;;21.67;100.00;100502.06;5187181;28;20677;-81
2023/09/18 10:20:08;;;;;;;7.50;4.00;;;;;;;21.71;100.00;100494.22;5189045;28;20022;-81
2023/09/18 10:22:46;;;;;;;14.48;4.30;;;;;;;21.64;100.00;100497.13;5195712;28;20064;-80
2023/09/18 10:25:22;;;;;;;9.82;4.10;;;;;;;21.70;100.00;100493.41;5201867;28;20064;-81
2023/09/18 10:27:58;;;;;;;12.63;4.20;;;;;;;21.78;100.00;100489.41;5189809;28;20484;-81
2023/09/18 10:30:32;;;;;;;16.88;4.43;;;;;;;21.78;100.00;100494.06;5201466;28;20018;-80
2023/09/18 10:33:03;;;;;;;12.40;3.85;;;;;;;21.75;100.00;100497.28;5192178;28;20095;-80
2023/09/18 10:35:35;;;;;;;7.18;3.80;;;;;;;22.00;100.00;100488.69;5193432;28;20411;-79
2023/09/18 10:38:06;;;;;;;7.47;4.10;;;;;;;22.05;100.00;100483.28;5196415;28;20021;-79
2023/09/18 10:40:37;;;;;;;12.43;4.03;;;;;;;22.30;100.00;100480.13;5195073;28;20438;-80
2023/09/18 10:43:11;;;;;;;9.23;3.40;;;;;;;22.63;100.00;100473.69;5199350;28;20080;-79
2023/09/18 10:45:44;;;;;;;9.95;3.83;;;;;;;22.72;100.00;100491.31;5190348;28;20611;-79
2023/09/18 10:48:17;;;;;;;12.98;3.65;;;;;;;22.58;100.00;100471.72;5186553;28;20029;-80
2023/09/18 10:50:48;;;;;;;12.05;4.13;;;;;;;22.75;100.00;100480.69;5193036;28;20034;-80
2023/09/18 10:53:20;;;;;;;6.50;3.22;;;;;;;22.92;100.00;100477.06;5189391;28;20395;-80
2023/09/18 10:55:52;;;;;;;7.63;3.45;;;;;;;22.97;100.00;100488.91;5195616;28;20049;-81
2023/09/18 10:58:25;;;;;;;10.27;3.63;;;;;;;23.13;100.00;100481.66;5190968;28;20026;-80
2023/09/18 11:00:57;;;;;;;7.30;2.78;;;;;;;23.14;100.00;100477.84;5185043;28;20395;-80
2023/09/18 11:03:28;;;;;;;5.65;3.20;;;;;;;23.17;100.00;100480.06;5197348;28;20021;-80
2023/09/18 11:06:04;;;;;;;7.07;3.42;;;;;;;23.30;100.00;100484.31;5194978;28;20380;-80
2023/09/18 11:08:43;;;;;;;9.10;3.38;;;;;;;23.41;100.00;100490.72;5191011;28;20752;-80
2023/09/18 11:11:16;;;;;;;7.18;2.75;;;;;;;23.53;100.00;100475.75;5189460;28;20030;-80
2023/09/18 11:13:50;;;;;;;7.20;3.30;;;;;;;23.68;100.00;100480.56;5190182;28;20033;-81
2023/09/18 11:16:26;;;;;;;5.93;2.67;;;;;;;23.89;100.00;100484.25;5191214;28;20022;-79
2023/09/18 11:19:08;;;;;;;7.78;3.05;;;;;;;23.87;100.00;100466.47;5196859;28;20041;-79
2023/09/18 11:21:39;;;;;;;5.07;2.53;;;;;;;23.72;100.00;100480.88;5198121;28;20045;-81
2023/09/18 11:24:17;;;;;;;8.18;3.35;;;;;;;23.46;100.00;100464.19;5176840;28;20587;-79
2023/09/18 11:26:49;;;;;;;6.45;2.60;;;;;;;23.56;100.00;100460.72;5188016;28;20100;-81
2023/09/18 11:29:23;;;;;;;7.57;2.80;;;;;;;23.81;100.00;100451.09;5189289;28;20033;-82
2023/09/18 11:31:55;;;;;;;6.15;2.63;;;;;;;23.82;100.00;100450.81;5191710;28;20025;-81
2023/09/18 11:34:28;;;;;;;10.10;2.70;;;;;;;23.69;100.00;100464.94;5203243;28;20005;-81
2023/09/18 11:36:59;;;;;;;5.20;2.65;;;;;;;23.69;100.00;100460.28;5192481;28;20025;-79